createdAt,value
2018-06-15T00:00:53.491Z,3.67
2018-06-15T00:03:20.539Z,4.37
2018-06-15T00:05:47.494Z,6.05
2018-06-15T00:08:14.532Z,3.92
2018-06-15T00:10:41.580Z,4.20
2018-06-15T00:13:08.633Z,3.83
2018-06-15T00:15:35.674Z,3.65
2018-06-15T00:18:02.723Z,3.97
2018-06-15T00:20:29.781Z,7.87
2018-06-15T00:22:56.820Z,7.35
2018-06-15T00:25:23.903Z,3.50
2018-06-15T00:27:50.924Z,3.62
2018-06-15T00:30:17.967Z,4.05
2018-06-15T00:32:45.017Z,3.70
2018-06-15T00:35:12.072Z,3.62
2018-06-15T00:37:39.113Z,3.60
2018-06-15T00:40:06.161Z,3.90
2018-06-15T00:42:33.110Z,4.12
2018-06-15T00:45:00.156Z,3.83
2018-06-15T00:47:27.210Z,3.92
2018-06-15T00:49:54.264Z,4.57
2018-06-15T00:52:21.301Z,3.50
2018-06-15T00:54:48.356Z,6.70
2018-06-15T00:57:21.440Z,4.93
2018-06-15T00:59:49.110Z,4.03
2018-06-15T01:02:16.460Z,4.87
2018-06-15T01:04:43.509Z,3.83
2018-06-15T01:07:10.457Z,5.57
2018-06-15T01:09:37.502Z,4.20
2018-06-15T01:12:04.559Z,4.33
2018-06-15T01:14:31.599Z,5.07
2018-06-15T01:16:58.650Z,4.03
2018-06-15T01:19:25.703Z,4.10
2018-06-15T01:21:52.745Z,4.40
2018-06-15T01:24:19.795Z,3.80
2018-06-15T01:26:46.741Z,4.20
2018-06-15T01:29:13.789Z,3.73
2018-06-15T01:31:40.735Z,3.97
2018-06-15T01:34:07.785Z,4.40
2018-06-15T01:36:34.838Z,6.00
2018-06-15T01:39:01.882Z,5.00
2018-06-15T01:41:28.930Z,4.17
2018-06-15T01:43:55.991Z,7.83
2018-06-15T01:46:23.027Z,9.73
2018-06-15T01:48:50.077Z,6.07
2018-06-15T01:51:17.068Z,4.37
2018-06-15T01:53:44.070Z,4.83
2018-06-15T01:56:10.965Z,3.93
2018-06-15T01:58:37.969Z,3.97
2018-06-15T02:01:05.059Z,4.40
2018-06-15T02:03:32.061Z,4.07
2018-06-15T02:05:59.114Z,4.50
2018-06-15T02:08:26.157Z,5.27
2018-06-15T02:10:53.109Z,5.40
2018-06-15T02:13:20.059Z,4.60
2018-06-15T02:15:47.201Z,7.67
2018-06-15T02:18:14.148Z,4.37
2018-06-15T02:20:41.196Z,5.57
2018-06-15T02:23:08.252Z,4.17
2018-06-15T02:25:35.298Z,4.40
2018-06-15T02:28:02.343Z,4.23
2018-06-15T02:30:29.289Z,5.27
2018-06-15T02:32:56.286Z,5.63
2018-06-15T02:35:23.283Z,5.10
2018-06-15T02:37:50.235Z,4.90
2018-06-15T02:40:17.109Z,4.60
2018-06-15T02:42:44.121Z,4.97
2018-06-15T02:45:11.173Z,4.70
2018-06-15T02:47:38.117Z,6.63
2018-06-15T02:50:05.069Z,6.13
2018-06-15T02:52:32.112Z,4.93
2018-06-15T02:54:59.165Z,5.90
2018-06-15T02:57:26.216Z,5.07
2018-06-15T02:59:53.260Z,6.67
2018-06-15T03:02:20.224Z,5.53
2018-06-15T03:04:47.257Z,5.13
2018-06-15T03:07:14.205Z,4.77
2018-06-15T03:09:41.255Z,5.37
2018-06-15T03:12:08.296Z,8.37
2018-06-15T03:14:35.353Z,5.53
2018-06-15T03:17:02.807Z,5.07
2018-06-15T03:19:29.850Z,5.63
2018-06-15T03:21:56.803Z,5.00
2018-06-15T03:24:23.845Z,8.37
2018-06-15T03:26:50.895Z,5.63
2018-06-15T03:29:17.948Z,7.40
2018-06-15T03:31:45.131Z,4.63
2018-06-15T03:34:12.143Z,5.37
2018-06-15T03:36:39.191Z,4.27
2018-06-15T03:39:06.245Z,5.00
2018-06-15T03:41:33.290Z,5.40
2018-06-15T03:44:00.337Z,6.83
2018-06-15T03:46:27.390Z,5.53
2018-06-15T03:48:54.433Z,5.43
2018-06-15T03:51:21.482Z,9.33
2018-06-15T03:53:48.536Z,5.97
2018-06-15T03:56:15.579Z,6.93
2018-06-15T03:58:42.628Z,7.23
2018-06-15T04:01:09.682Z,7.27
2018-06-15T04:03:36.624Z,4.80
2018-06-15T04:06:03.677Z,5.60
2018-06-15T04:08:30.660Z,5.13
2018-06-15T04:10:57.672Z,7.67
2018-06-15T04:13:24.660Z,5.33
2018-06-15T04:15:51.667Z,5.90
2018-06-15T04:18:18.710Z,5.40
2018-06-15T04:20:45.758Z,7.23
2018-06-15T04:23:12.812Z,8.53
2018-06-15T04:25:39.855Z,5.40
2018-06-15T04:28:06.903Z,6.87
2018-06-15T04:30:33.958Z,5.40
2018-06-15T04:33:01.207Z,6.77
2018-06-15T04:35:28.260Z,9.07
2018-06-15T04:37:55.248Z,5.90
2018-06-15T04:40:22.562Z,7.00
2018-06-15T04:42:49.606Z,5.53
2018-06-15T04:45:16.654Z,5.33
2018-06-15T04:47:44.061Z,5.60
2018-06-15T04:50:11.058Z,6.13
2018-06-15T04:52:38.108Z,6.70
2018-06-15T04:55:05.473Z,7.27
2018-06-15T04:57:32.717Z,7.57
2018-06-15T04:59:59.770Z,9.40
2018-06-15T05:02:27.228Z,8.23
2018-06-15T05:04:54.170Z,7.33
2018-06-15T05:07:21.115Z,7.53
2018-06-15T05:09:48.471Z,8.47
2018-06-15T05:12:15.525Z,9.90
2018-06-15T05:20:32.714Z,9.17
2018-06-15T05:25:46.247Z,8.53
2018-06-15T05:28:13.285Z,9.20
2018-06-15T05:30:41.560Z,8.97
2018-06-15T05:33:09.325Z,10.40
2018-06-15T05:35:36.312Z,8.90
2018-06-15T05:38:04.240Z,8.57
2018-06-15T05:40:31.186Z,8.53
2018-06-15T05:42:58.139Z,9.63
2018-06-15T05:45:25.081Z,9.03
2018-06-15T05:47:52.947Z,9.87
2018-06-15T05:50:19.900Z,10.83
2018-06-15T05:52:46.957Z,12.50
2018-06-15T05:55:13.992Z,10.63
2018-06-15T05:57:41.660Z,10.40
2018-06-15T06:00:08.811Z,10.07
2018-06-15T06:02:35.857Z,9.90
2018-06-15T06:05:02.902Z,10.27
2018-06-15T06:07:29.958Z,10.83
2018-06-15T06:09:56.998Z,10.17
2018-06-15T06:12:24.051Z,10.50
2018-06-15T06:14:51.100Z,10.70
2018-06-15T06:17:18.145Z,10.13
2018-06-15T06:19:45.161Z,10.07
2018-06-15T06:22:12.139Z,11.47
2018-06-15T06:24:39.191Z,10.03
2018-06-15T06:27:06.240Z,11.13
2018-06-15T06:29:33.490Z,10.93
2018-06-15T06:32:00.543Z,11.20
2018-06-15T06:34:27.695Z,11.57
2018-06-15T06:36:54.738Z,19.40
2018-06-15T06:39:23.019Z,11.30
2018-06-15T06:41:50.380Z,10.87
2018-06-15T06:44:17.571Z,13.97
2018-06-15T06:46:46.004Z,13.73
2018-06-15T06:49:13.060Z,10.68
2018-06-15T06:51:44.184Z,10.73
2018-06-15T06:54:11.150Z,10.43
2018-06-15T06:56:38.398Z,10.50
2018-06-15T06:59:06.163Z,8.50
2018-06-15T07:01:33.211Z,9.80
2018-06-15T07:04:00.363Z,9.45
2018-06-15T07:06:27.417Z,11.82
2018-06-15T07:08:54.462Z,9.40
2018-06-15T07:11:21.611Z,21.30
2018-06-15T07:13:48.706Z,8.38
2018-06-15T07:16:15.747Z,8.63
2018-06-15T07:18:43.106Z,8.63
2018-06-15T07:21:11.087Z,8.90
2018-06-15T07:23:38.236Z,10.65
2018-06-15T07:26:05.239Z,7.68
2018-06-15T07:28:32.283Z,8.55
2018-06-15T07:30:59.331Z,11.15
2018-06-15T07:33:26.334Z,8.20
2018-06-15T07:35:53.326Z,7.22
2018-06-15T07:38:20.383Z,7.20
2018-06-15T07:40:48.039Z,6.62
2018-06-15T07:43:15.087Z,7.70
2018-06-15T07:45:42.340Z,9.18
2018-06-15T07:48:09.346Z,5.70
2018-06-15T07:50:36.360Z,6.00
2018-06-15T07:53:03.383Z,6.60
2018-06-15T07:55:30.436Z,6.55
2018-06-15T07:57:57.602Z,7.95
2018-06-15T08:00:25.046Z,5.82
2018-06-15T08:02:51.986Z,6.53
2018-06-15T08:05:18.933Z,8.00
2018-06-15T08:07:45.982Z,6.10
2018-06-15T08:10:13.222Z,7.03
2018-06-15T08:12:40.385Z,7.47
2018-06-15T08:15:07.435Z,10.70
2018-06-15T08:17:35.507Z,6.60
2018-06-15T08:20:03.272Z,9.90
2018-06-15T08:22:30.326Z,5.18
2018-06-15T08:24:57.370Z,6.82
2018-06-15T08:27:24.520Z,5.93
2018-06-15T08:29:51.569Z,7.10
2018-06-15T08:32:18.824Z,5.78
2018-06-15T08:34:45.773Z,6.40
2018-06-15T08:37:12.818Z,5.70
2018-06-15T08:39:39.866Z,6.22
2018-06-15T08:42:06.961Z,9.05
2018-06-15T08:44:33.967Z,6.62
2018-06-15T08:47:01.015Z,7.60
2018-06-15T08:49:28.067Z,5.78
2018-06-15T08:51:55.126Z,5.93
2018-06-15T08:54:22.775Z,5.70
2018-06-15T08:56:49.828Z,6.00
2018-06-15T08:59:16.869Z,4.57
2018-06-15T09:01:43.936Z,4.28
2018-06-15T09:04:11.069Z,2.85
2018-06-15T09:06:38.014Z,3.35
2018-06-15T09:09:05.167Z,3.60
2018-06-15T09:11:33.771Z,3.75
2018-06-15T09:14:00.901Z,4.55
2018-06-15T09:16:28.051Z,5.07
2018-06-15T09:18:55.203Z,5.12
2018-06-15T09:21:22.765Z,5.87
2018-06-15T09:23:50.120Z,8.10
2018-06-15T09:26:17.026Z,5.12
2018-06-15T09:28:44.016Z,5.35
2018-06-15T09:31:11.878Z,5.28
2018-06-15T09:33:39.133Z,7.37
2018-06-15T09:36:06.802Z,5.90
2018-06-15T09:38:33.850Z,5.20
2018-06-15T09:41:01.404Z,4.70
2018-06-15T09:43:28.502Z,6.28
2018-06-15T09:45:55.707Z,8.45
2018-06-15T09:48:22.858Z,6.60
2018-06-15T09:50:50.622Z,6.95
2018-06-15T09:53:17.753Z,7.50
2018-06-15T09:55:44.828Z,7.10
2018-06-15T09:58:13.100Z,6.37
2018-06-15T10:00:42.137Z,7.82
2018-06-15T10:03:09.599Z,8.05
2018-06-15T10:05:36.741Z,7.60
2018-06-15T10:08:04.059Z,6.82
2018-06-15T10:10:32.477Z,6.05
2018-06-15T10:12:59.693Z,4.68
2018-06-15T10:15:28.380Z,4.68
2018-06-15T10:17:55.988Z,3.70
2018-06-15T10:20:24.422Z,3.15
2018-06-15T10:22:51.677Z,4.43
2018-06-15T10:25:20.201Z,3.50
2018-06-15T10:27:47.412Z,5.62
2018-06-15T10:30:16.061Z,6.70
2018-06-15T10:32:43.466Z,3.70
2018-06-15T10:35:10.504Z,6.53
2018-06-15T10:37:37.484Z,8.60
2018-06-15T10:40:04.744Z,9.20
2018-06-15T10:42:31.854Z,5.10
2018-06-15T10:45:00.638Z,4.60
2018-06-15T10:47:27.692Z,8.65
2018-06-15T10:49:55.457Z,6.18
2018-06-15T10:52:22.512Z,6.57
2018-06-15T10:54:50.685Z,3.65
2018-06-15T10:57:17.739Z,3.45
2018-06-15T10:59:45.851Z,2.90
2018-06-15T11:02:13.408Z,2.40
2018-06-15T11:04:41.985Z,2.50
2018-06-15T11:07:08.996Z,3.58
2018-06-15T11:09:36.045Z,3.17
2018-06-15T11:12:10.438Z,3.37
2018-06-15T11:14:52.624Z,3.40
2018-06-15T11:17:19.922Z,3.37
2018-06-15T11:19:48.335Z,2.70
2018-06-15T11:22:16.017Z,4.75
2018-06-15T11:24:45.304Z,2.40
2018-06-15T11:27:14.605Z,3.00
2018-06-15T11:29:44.793Z,2.40
2018-06-15T11:32:14.179Z,2.53
2018-06-15T11:34:43.622Z,3.30
2018-06-15T11:37:11.933Z,2.28
2018-06-15T11:39:40.447Z,3.53
2018-06-15T11:42:08.820Z,2.20
2018-06-15T11:44:39.085Z,3.28
2018-06-15T11:47:09.069Z,2.78
2018-06-15T11:49:39.441Z,3.33
2018-06-15T11:52:07.825Z,2.30
2018-06-15T11:54:36.819Z,2.00
2018-06-15T11:57:06.808Z,2.00
2018-06-15T11:59:34.360Z,2.22
2018-06-15T12:02:02.881Z,2.22
2018-06-15T12:04:31.361Z,2.00
2018-06-15T12:07:02.850Z,4.03
2018-06-15T12:09:31.361Z,2.62
2018-06-15T12:11:59.741Z,4.57
2018-06-15T12:14:28.064Z,5.25
2018-06-15T12:19:23.081Z,6.53
2018-06-15T12:21:51.445Z,5.12
2018-06-15T12:24:19.662Z,6.37
2018-06-15T12:26:47.461Z,2.72
2018-06-15T12:29:15.781Z,4.37
2018-06-15T12:31:44.396Z,5.40
2018-06-15T12:34:13.731Z,3.12
2018-06-15T12:36:42.516Z,3.12
2018-06-15T12:39:09.495Z,6.07
2018-06-15T12:41:38.665Z,6.00
2018-06-15T12:44:08.605Z,3.00
2018-06-15T12:46:36.175Z,2.62
2018-06-15T12:49:04.625Z,3.28
2018-06-15T12:51:33.026Z,2.90
2018-06-15T12:54:01.700Z,2.80
2018-06-15T12:56:30.108Z,3.83
2018-06-15T12:58:59.642Z,3.00
2018-06-15T13:01:28.297Z,3.10
2018-06-15T13:03:55.718Z,2.75
2018-06-15T13:06:23.214Z,3.97
2018-06-15T13:08:51.428Z,3.42
2018-06-15T13:11:19.877Z,3.90
2018-06-15T13:13:47.023Z,3.67
2018-06-15T13:16:14.440Z,4.55
2018-06-15T13:18:42.998Z,3.67
2018-06-15T13:21:14.227Z,5.55
2018-06-15T13:23:41.955Z,3.65
2018-06-15T13:26:09.188Z,4.00
2018-06-15T13:28:37.527Z,3.40
2018-06-15T13:31:05.068Z,3.92
2018-06-15T13:33:32.177Z,4.20
2018-06-15T13:36:00.045Z,4.70
2018-06-15T13:38:27.404Z,3.87
2018-06-15T13:40:54.557Z,4.20
2018-06-15T13:43:22.221Z,3.70
2018-06-15T13:45:51.521Z,3.12
2018-06-15T13:48:18.770Z,2.85
2018-06-15T13:50:45.920Z,3.00
2018-06-15T13:53:13.177Z,3.37
2018-06-15T13:55:40.836Z,3.12
2018-06-15T13:58:09.344Z,4.47
2018-06-15T14:00:37.736Z,4.65
2018-06-15T14:03:06.802Z,3.60
2018-06-15T14:05:34.917Z,3.75
2018-06-15T14:08:03.296Z,3.62
2018-06-15T14:10:31.054Z,4.18
2018-06-15T14:12:58.313Z,9.80
2018-06-15T14:15:25.723Z,4.10
2018-06-15T14:17:52.875Z,3.83
2018-06-15T14:20:20.889Z,4.15
2018-06-15T14:22:48.150Z,3.97
2018-06-15T14:25:15.504Z,3.40
2018-06-15T14:27:42.919Z,3.45
2018-06-15T14:30:09.962Z,4.47
2018-06-15T14:32:37.012Z,4.25
2018-06-15T14:35:04.615Z,3.95
2018-06-15T14:37:34.332Z,3.92
2018-06-15T14:40:01.748Z,4.00
2018-06-15T14:42:30.050Z,4.40
2018-06-15T14:44:57.073Z,8.15
2018-06-15T14:47:24.268Z,4.95
2018-06-15T14:49:52.466Z,4.47
2018-06-15T14:52:19.441Z,4.60
2018-06-15T14:54:46.593Z,5.10
2018-06-15T14:57:16.991Z,5.00
2018-06-15T14:59:44.484Z,4.55
2018-06-15T15:02:12.183Z,4.43
2018-06-15T15:04:40.476Z,4.57
2018-06-15T15:07:08.492Z,4.68
2018-06-15T15:09:36.803Z,4.62
2018-06-15T15:12:05.893Z,6.20
2018-06-15T15:14:33.016Z,4.00
2018-06-15T15:17:00.577Z,3.97
2018-06-15T15:19:27.728Z,4.53
2018-06-15T15:21:58.379Z,4.00
2018-06-15T15:24:27.192Z,4.93
2018-06-15T15:26:55.837Z,5.15
2018-06-15T15:29:24.562Z,7.00
2018-06-15T15:31:52.288Z,5.40
2018-06-15T15:34:20.895Z,4.50
2018-06-15T15:36:48.980Z,4.60
2018-06-15T15:39:17.299Z,4.95
2018-06-15T15:41:47.578Z,4.50
2018-06-15T15:44:16.224Z,5.90
2018-06-15T15:46:45.785Z,5.45
2018-06-15T15:49:15.248Z,5.53
2018-06-15T15:51:43.774Z,5.45
2018-06-15T15:54:11.496Z,4.57
2018-06-15T15:56:40.344Z,5.60
2018-06-15T15:59:09.095Z,5.18
2018-06-15T16:01:37.307Z,5.55
2018-06-15T16:04:06.590Z,7.47
2018-06-15T16:06:35.136Z,4.32
2018-06-15T16:09:04.346Z,6.22
2018-06-15T16:11:32.949Z,4.47
2018-06-15T16:14:06.265Z,5.68
2018-06-15T16:16:34.929Z,7.43
2018-06-15T16:19:03.433Z,6.00
2018-06-15T16:21:32.007Z,4.70
2018-06-15T16:24:00.461Z,9.63
2018-06-15T16:26:28.869Z,4.82
2018-06-15T16:28:57.416Z,4.65
2018-06-15T16:31:25.796Z,4.53
2018-06-15T16:33:54.115Z,4.05
2018-06-15T16:36:22.509Z,4.50
2018-06-15T16:38:50.120Z,5.93
2018-06-15T16:41:20.369Z,4.53
2018-06-15T16:43:48.001Z,6.65
2018-06-15T16:46:17.062Z,5.32
2018-06-15T16:48:45.482Z,4.62
2018-06-15T16:51:15.159Z,7.15
2018-06-15T16:53:43.310Z,4.93
2018-06-15T16:56:15.261Z,4.30
2018-06-15T16:58:44.156Z,7.45
2018-06-15T17:01:12.641Z,4.18
2018-06-15T17:03:42.750Z,5.10
2018-06-15T17:06:12.699Z,5.50
2018-06-15T17:08:41.974Z,9.15
2018-06-15T17:11:11.465Z,5.37
2018-06-15T17:13:40.932Z,6.87
2018-06-15T17:16:10.461Z,6.80
2018-06-15T17:18:39.065Z,4.05
2018-06-15T17:21:08.443Z,4.40
2018-06-15T17:23:37.184Z,6.32
2018-06-15T17:26:08.247Z,7.20
2018-06-15T17:28:37.013Z,5.07
2018-06-15T17:31:07.436Z,8.52
2018-06-15T17:33:35.156Z,8.60
2018-06-15T17:36:03.538Z,5.20
2018-06-15T17:38:31.099Z,6.87
2018-06-15T17:40:59.300Z,8.77
2018-06-15T17:43:27.549Z,8.15
2018-06-15T17:45:55.445Z,4.78
2018-06-15T17:48:24.460Z,5.60
2018-06-15T17:50:53.161Z,5.32
2018-06-15T17:53:21.359Z,6.50
2018-06-15T17:55:49.797Z,8.13
2018-06-15T17:58:20.133Z,7.35
2018-06-15T18:00:49.838Z,8.30
2018-06-15T18:03:18.216Z,4.72
2018-06-15T18:05:46.858Z,7.62
2018-06-15T18:08:16.017Z,7.03
2018-06-15T18:10:44.606Z,6.43
2018-06-15T18:13:14.001Z,5.22
2018-06-15T18:15:42.938Z,8.07
2018-06-15T18:18:12.082Z,5.37
2018-06-15T18:20:39.191Z,5.12
2018-06-15T18:23:06.884Z,4.97
2018-06-15T18:25:35.474Z,5.72
2018-06-15T18:28:02.891Z,5.75
2018-06-15T18:30:32.534Z,6.55
2018-06-15T18:33:01.933Z,5.53
2018-06-15T18:35:30.426Z,8.55
2018-06-15T18:37:58.795Z,5.60
2018-06-15T18:40:29.224Z,5.55
2018-06-15T18:42:58.565Z,7.18
2018-06-15T18:45:27.208Z,5.43
2018-06-15T18:47:56.630Z,7.62
2018-06-15T18:50:24.400Z,5.53
2018-06-15T18:52:52.668Z,6.22
2018-06-15T18:55:25.206Z,9.30
2018-06-15T18:57:53.520Z,5.65
2018-06-15T19:00:27.600Z,5.90
2018-06-15T19:02:57.392Z,6.07
2018-06-15T19:05:25.181Z,5.80
2018-06-15T19:07:56.227Z,6.22
2018-06-15T19:10:24.938Z,6.55
2018-06-15T19:12:53.221Z,7.15
2018-06-15T19:15:21.769Z,5.70
2018-06-15T19:17:50.148Z,6.78
2018-06-15T19:20:19.481Z,8.73
2018-06-15T19:22:48.172Z,10.38
2018-06-15T19:25:16.774Z,6.55
2018-06-15T19:27:45.203Z,6.87
2018-06-15T19:30:13.921Z,5.93
2018-06-15T19:32:42.312Z,11.65
2018-06-15T19:35:10.957Z,6.20
2018-06-15T19:37:39.137Z,7.82
2018-06-15T19:40:07.954Z,5.95
2018-06-15T19:42:36.307Z,8.30
2018-06-15T19:45:04.633Z,7.37
2018-06-15T19:47:33.208Z,9.93
2018-06-15T19:50:01.588Z,10.02
2018-06-15T19:52:31.040Z,8.35
2018-06-15T19:55:03.166Z,7.72
2018-06-15T19:57:33.158Z,9.45
2018-06-15T20:00:00.802Z,8.80
2018-06-15T20:02:29.001Z,6.30
2018-06-15T20:04:58.406Z,7.95
2018-06-15T20:07:27.924Z,6.57
2018-06-15T20:09:56.209Z,7.18
2018-06-15T20:12:29.154Z,9.40
2018-06-15T20:14:57.536Z,10.90
2018-06-15T20:17:24.885Z,11.12
2018-06-15T20:19:53.337Z,13.40
2018-06-15T20:22:21.849Z,11.90
2018-06-15T20:24:51.201Z,10.63
2018-06-15T20:27:19.841Z,12.57
2018-06-15T20:29:49.793Z,11.48
2018-06-15T20:32:18.237Z,8.00
2018-06-15T20:34:46.822Z,7.75
2018-06-15T20:37:14.917Z,12.15
2018-06-15T20:39:42.963Z,8.20
2018-06-15T20:42:10.868Z,7.32
2018-06-15T20:44:42.119Z,10.88
2018-06-15T20:47:09.947Z,7.75
2018-06-15T20:49:38.152Z,6.57
2018-06-15T20:52:07.644Z,6.93
2018-06-15T20:54:35.845Z,7.47
2018-06-15T20:57:03.203Z,7.10
2018-06-15T20:59:30.311Z,9.43
2018-06-15T21:01:57.564Z,6.87
2018-06-15T21:04:24.715Z,7.82
2018-06-15T21:06:54.701Z,8.00
2018-06-15T21:09:22.703Z,9.32
2018-06-15T21:11:50.191Z,9.88
2018-06-15T21:14:17.518Z,12.88
2018-06-15T21:16:44.669Z,11.68
2018-06-15T21:19:12.096Z,10.40
2018-06-15T21:21:40.861Z,7.05
2018-06-15T21:24:07.965Z,18.58
2018-06-15T21:26:41.809Z,8.35
2018-06-15T21:29:10.773Z,8.13
2018-06-15T21:31:39.044Z,7.75
2018-06-15T21:34:06.195Z,7.53
2018-06-15T21:36:45.839Z,7.80
2018-06-15T21:39:23.231Z,8.60
2018-06-15T21:44:34.217Z,8.43
2018-06-15T21:47:05.372Z,8.90
2018-06-15T21:49:35.885Z,9.38
2018-06-15T21:52:07.278Z,8.35
2018-06-15T21:54:37.494Z,8.13
2018-06-15T21:57:04.520Z,10.23
2018-06-15T21:59:34.538Z,9.27
2018-06-15T22:02:01.587Z,8.00
2018-06-15T22:04:40.006Z,8.88
2018-06-15T22:07:07.670Z,8.38
2018-06-15T22:09:35.942Z,9.57
2018-06-15T22:12:05.963Z,10.35
2018-06-15T22:14:43.759Z,9.23
2018-06-15T22:17:10.864Z,11.48
2018-06-15T22:19:40.422Z,9.20
2018-06-15T22:22:09.112Z,9.48
2018-06-15T22:24:36.263Z,9.75
2018-06-15T22:27:03.922Z,11.48
2018-06-15T22:29:32.099Z,8.93
2018-06-15T22:32:00.317Z,9.38
2018-06-15T22:34:27.324Z,9.48
2018-06-15T22:36:59.485Z,11.57
2018-06-15T22:39:31.506Z,9.30
2018-06-15T22:41:58.502Z,9.35
2018-06-15T22:44:27.909Z,10.93
2018-06-15T22:46:55.257Z,9.45
2018-06-15T22:49:22.312Z,10.48
2018-06-15T22:51:55.295Z,10.00
2018-06-15T22:54:22.350Z,9.93
2018-06-15T22:56:49.809Z,10.63
2018-06-15T22:59:17.181Z,10.60
2018-06-15T23:01:44.206Z,12.75
2018-06-15T23:04:11.357Z,10.65
2018-06-15T23:06:38.356Z,10.82
2018-06-15T23:09:06.324Z,9.77
2018-06-15T23:11:33.327Z,10.13
2018-06-15T23:14:00.371Z,13.57
2018-06-15T23:16:27.421Z,12.88
2018-06-15T23:18:54.477Z,10.48
2018-06-15T23:21:21.521Z,15.82
2018-06-15T23:23:48.567Z,13.00
2018-06-15T23:26:15.623Z,11.85
2018-06-15T23:28:43.486Z,12.60
2018-06-15T23:31:10.538Z,9.90
2018-06-15T23:33:37.785Z,12.45
2018-06-15T23:36:04.840Z,9.18
2018-06-15T23:38:32.345Z,10.13
2018-06-15T23:40:59.340Z,13.15
2018-06-15T23:43:26.387Z,11.12
2018-06-15T23:45:54.059Z,10.60
2018-06-15T23:48:22.534Z,12.23
2018-06-15T23:50:50.508Z,10.63
2018-06-15T23:53:17.421Z,10.27
2018-06-15T23:55:44.396Z,9.90
2018-06-15T23:58:11.447Z,9.43
